Time;durP1;ratioP1;P1;durP2;ratioP2;P2;SDS_P1;SDS_P2;PMS_P1;PMS_P2;Temp;Humidity;BMP_temperature;BMP_pressure;BME280_temperature;BME280_humidity;BME280_pressure;Samples;Min_cycle;Max_cycle;Signal;HPM_P1;HPM_P2
2021/12/30 00:00:36;;;;;;;18.95;13.68;;;;;;;9.49;66.84;99989.09;4984498;28;120199;-79
2021/12/30 00:03:01;;;;;;;21.67;14.38;;;;;;;9.50;67.74;99970.69;4971403;28;122632;-79
2021/12/30 00:05:27;;;;;;;15.90;13.32;;;;;;;9.53;66.87;99972.50;4966328;28;119846;-80
2021/12/30 00:07:53;;;;;;;18.77;14.45;;;;;;;9.51;67.40;99964.00;4952628;28;122378;-81
2021/12/30 00:10:18;;;;;;;19.05;14.27;;;;;;;9.54;67.34;99980.25;4947510;28;123754;-79
2021/12/30 00:12:44;;;;;;;19.10;14.98;;;;;;;9.57;67.03;99980.56;4932888;28;120547;-80
2021/12/30 00:15:11;;;;;;;19.48;14.52;;;;;;;9.54;66.97;99968.56;4929447;28;120043;-78
2021/12/30 00:17:36;;;;;;;22.13;15.93;;;;;;;9.49;67.66;99952.75;4965965;28;123759;-80
2021/12/30 00:20:05;;;;;;;19.15;15.07;;;;;;;9.62;67.66;99972.47;4947493;28;120190;-80
2021/12/30 00:22:31;;;;;;;25.75;17.42;;;;;;;9.66;66.87;99973.06;4934535;28;122297;-80
2021/12/30 00:24:57;;;;;;;48.20;23.45;;;;;;;9.65;67.13;99971.56;4951865;28;120543;-81
2021/12/30 00:27:23;;;;;;;50.60;27.88;;;;;;;9.73;67.60;99977.47;4966984;28;121774;-80
2021/12/30 00:29:48;;;;;;;49.42;20.02;;;;;;;9.74;67.12;99982.50;4935129;28;122642;-78
2021/12/30 00:32:14;;;;;;;73.60;24.15;;;;;;;9.66;67.53;99970.34;4946815;28;120273;-80
2021/12/30 00:34:39;;;;;;;55.83;23.98;;;;;;;9.70;67.33;99987.38;4966920;28;119449;-80
2021/12/30 00:37:06;;;;;;;57.65;23.65;;;;;;;9.76;67.30;99982.78;4977619;28;121025;-79
2021/12/30 00:39:33;;;;;;;82.82;24.50;;;;;;;9.77;67.46;99989.78;4966818;28;120089;-79
2021/12/30 00:41:58;;;;;;;42.90;21.05;;;;;;;9.77;67.29;99987.03;4983593;28;119691;-79
2021/12/30 00:44:24;;;;;;;57.28;21.42;;;;;;;9.80;67.23;99994.34;4982793;28;120367;-81
2021/12/30 00:46:50;;;;;;;76.18;22.40;;;;;;;9.74;67.50;99976.25;4983610;28;119847;-79
2021/12/30 00:49:15;;;;;;;83.05;21.27;;;;;;;9.79;67.43;99994.81;4981624;28;120171;-78
2021/12/30 00:51:41;;;;;;;116.70;23.70;;;;;;;9.82;67.33;99997.38;4968981;28;119862;-80
2021/12/30 00:54:07;;;;;;;115.47;24.35;;;;;;;9.79;67.75;100009.25;4951359;28;120686;-82
2021/12/30 00:56:32;;;;;;;81.97;23.73;;;;;;;9.79;67.25;99997.53;4949344;28;120692;-80
2021/12/30 00:58:58;;;;;;;73.88;24.10;;;;;;;9.77;67.80;100002.72;4948550;28;120080;-80
2021/12/30 01:01:24;;;;;;;112.85;24.98;;;;;;;9.69;67.38;99998.78;4966521;28;121854;-82
2021/12/30 01:03:51;;;;;;;160.55;27.33;;;;;;;9.81;67.84;100020.50;4984965;28;119856;-78
2021/12/30 01:06:17;;;;;;;111.32;26.33;;;;;;;9.81;67.93;100011.53;4981560;28;119580;-81
2021/12/30 01:08:43;;;;;;;92.18;25.48;;;;;;;9.70;67.84;100001.06;4975204;28;122114;-82
2021/12/30 01:11:10;;;;;;;75.82;26.73;;;;;;;9.79;67.69;100014.72;4950643;28;119615;-81
2021/12/30 01:13:42;;;;;;;81.70;27.83;;;;;;;9.82;67.66;100013.81;4959967;28;121576;-82
2021/12/30 01:16:22;;;;;;;65.75;24.85;;;;;;;9.75;67.91;100019.63;4978026;28;120224;-81
2021/12/30 01:19:04;;;;;;;105.68;28.02;;;;;;;9.84;68.04;100027.03;4965853;28;119477;-81
2021/12/30 01:21:35;;;;;;;135.25;25.70;;;;;;;9.78;67.40;100026.16;4967600;28;121741;-81
2021/12/30 01:24:03;;;;;;;72.07;25.30;;;;;;;9.80;67.81;100029.94;4969232;28;122259;-77
2021/12/30 01:26:29;;;;;;;64.18;25.13;;;;;;;9.82;67.67;100029.47;4984463;28;119452;-80
2021/12/30 01:28:54;;;;;;;82.60;26.48;;;;;;;9.80;68.17;100021.72;4953193;28;122603;-82
2021/12/30 01:31:20;;;;;;;73.45;25.65;;;;;;;9.84;67.97;100019.59;4972184;28;123091;-81
2021/12/30 01:33:47;;;;;;;196.18;30.83;;;;;;;9.95;67.88;100037.53;4952951;28;121627;-82
2021/12/30 01:36:15;;;;;;;215.80;31.92;;;;;;;9.96;68.00;100033.56;4967990;28;121990;-82
2021/12/30 01:38:42;;;;;;;52.45;26.00;;;;;;;9.97;68.27;100035.09;4967703;28;120078;-81
2021/12/30 01:41:09;;;;;;;119.45;28.00;;;;;;;9.90;67.63;100027.16;4952251;28;120993;-79
2021/12/30 01:43:36;;;;;;;107.10;27.83;;;;;;;9.92;68.13;100035.69;4953923;28;122245;-80
2021/12/30 01:46:07;;;;;;;202.05;31.65;;;;;;;9.98;68.28;100042.84;4966929;28;119499;-79
2021/12/30 01:48:33;;;;;;;72.30;27.52;;;;;;;9.97;67.80;100046.03;4970271;28;121162;-81
2021/12/30 01:50:59;;;;;;;88.28;42.15;;;;;;;9.99;68.33;100052.56;4967582;28;121895;-81
2021/12/30 01:53:25;;;;;;;85.93;29.67;;;;;;;9.96;68.29;100041.78;4972999;28;119583;-81
2021/12/30 01:55:51;;;;;;;85.88;27.55;;;;;;;10.08;67.80;100057.25;4969047;28;122771;-80
2021/12/30 01:58:18;;;;;;;134.02;28.88;;;;;;;10.09;67.77;100058.78;4952832;28;120077;-79
2021/12/30 02:00:46;;;;;;;55.58;28.77;;;;;;;10.09;67.79;100058.78;4951533;28;121231;-81
2021/12/30 02:03:15;;;;;;;52.50;28.35;;;;;;;10.15;67.80;100062.41;4964879;28;122933;-77
2021/12/30 02:05:42;;;;;;;71.50;31.63;;;;;;;10.20;68.28;100070.03;4953190;28;120339;-82
2021/12/30 02:08:12;;;;;;;45.83;25.45;;;;;;;10.23;67.95;100080.09;4952791;28;122758;-81
2021/12/30 02:10:40;;;;;;;52.40;27.35;;;;;;;10.29;68.06;100082.97;4968650;28;123104;-81
2021/12/30 02:13:07;;;;;;;51.40;25.60;;;;;;;10.29;68.58;100086.47;4954356;28;120368;-81
2021/12/30 02:15:33;;;;;;;48.33;24.67;;;;;;;10.29;68.12;100080.22;4955163;28;123441;-81
2021/12/30 02:17:59;;;;;;;46.42;22.80;;;;;;;10.42;67.99;100106.22;4967762;28;119687;-80
2021/12/30 02:20:46;;;;;;;46.30;22.50;;;;;;;10.47;67.97;100115.78;4983123;28;119677;-81
2021/12/30 02:23:26;;;;;;;54.40;22.02;;;;;;;10.52;68.04;100119.88;4959242;28;120441;-81
2021/12/30 02:25:55;;;;;;;48.65;19.60;;;;;;;10.52;68.45;100114.41;4990399;28;121352;-81
2021/12/30 02:28:25;;;;;;;47.95;18.00;;;;;;;10.62;68.25;100126.84;4959620;28;120318;-81
2021/12/30 02:30:53;;;;;;;56.35;17.40;;;;;;;10.67;68.60;100118.00;4975486;28;119835;-81
2021/12/30 02:33:20;;;;;;;60.38;16.80;;;;;;;10.75;68.82;100124.66;4956942;28;119853;-82
2021/12/30 02:35:45;;;;;;;53.60;15.20;;;;;;;10.82;69.06;100129.78;4989261;28;122074;-82
2021/12/30 02:38:11;;;;;;;63.75;15.13;;;;;;;10.86;69.20;100122.16;4975691;28;120445;-82
2021/12/30 02:40:41;;;;;;;54.20;14.77;;;;;;;10.89;69.05;100113.00;4974424;28;119507;-83
2021/12/30 02:43:11;;;;;;;62.03;13.07;;;;;;;10.94;68.57;100112.38;4974983;28;122192;-81
2021/12/30 02:45:37;;;;;;;49.25;12.75;;;;;;;11.03;68.91;100125.25;4974366;28;119516;-82
2021/12/30 02:48:03;;;;;;;57.38;13.25;;;;;;;11.15;69.80;100142.75;4974204;28;122380;-82
2021/12/30 02:50:29;;;;;;;52.97;11.32;;;;;;;11.12;69.32;100121.69;4971811;28;121734;-81
2021/12/30 02:52:55;;;;;;;58.63;11.10;;;;;;;11.28;68.92;100138.53;4992371;28;120494;-82
2021/12/30 02:55:21;;;;;;;58.20;11.52;;;;;;;11.32;68.55;100138.34;4975189;28;119880;-81
2021/12/30 02:57:48;;;;;;;63.67;11.70;;;;;;;11.36;68.10;100141.69;4962301;28;120841;-80
2021/12/30 03:00:14;;;;;;;58.58;10.48;;;;;;;11.36;68.12;100141.69;4975279;28;119771;-81
2021/12/30 03:02:40;;;;;;;64.25;11.02;;;;;;;11.42;68.82;100150.78;4974761;28;123102;-79
2021/12/30 03:05:08;;;;;;;57.50;10.23;;;;;;;11.50;69.26;100162.94;4972163;28;120079;-81
2021/12/30 03:07:35;;;;;;;64.35;10.73;;;;;;;11.56;69.18;100163.03;4973006;28;122153;-80
2021/12/30 03:10:03;;;;;;;59.30;10.85;;;;;;;11.57;69.60;100151.59;4974662;28;122750;-80
2021/12/30 03:12:28;;;;;;;67.22;10.77;;;;;;;11.60;69.18;100150.66;4955532;28;119608;-80
2021/12/30 03:14:56;;;;;;;59.17;10.75;;;;;;;11.66;68.27;100151.53;4975123;28;122497;-81
2021/12/30 03:17:22;;;;;;;59.38;9.93;;;;;;;11.66;68.47;100151.53;4949487;28;122974;-80
2021/12/30 03:19:48;;;;;;;58.88;10.30;;;;;;;11.71;69.48;100141.13;4958701;28;120441;-79
2021/12/30 03:22:13;;;;;;;67.78;10.38;;;;;;;11.77;69.07;100147.47;4974838;28;122656;-81
2021/12/30 03:24:39;;;;;;;57.00;10.52;;;;;;;11.78;69.30;100141.53;4992781;28;119808;-81
2021/12/30 03:27:06;;;;;;;62.83;10.65;;;;;;;11.89;69.55;100162.97;4956007;28;123287;-81
2021/12/30 03:29:32;;;;;;;55.30;9.55;;;;;;;11.87;68.96;100159.94;4973736;28;122619;-81
2021/12/30 03:31:57;;;;;;;68.53;11.25;;;;;;;11.89;68.51;100163.72;4973905;28;120348;-81
2021/12/30 03:34:23;;;;;;;64.97;10.40;;;;;;;11.98;68.15;100157.38;4937532;28;121801;-81
2021/12/30 03:36:48;;;;;;;64.18;10.60;;;;;;;11.97;68.01;100153.88;4967017;28;123022;-77
2021/12/30 03:39:14;;;;;;;54.58;9.30;;;;;;;12.00;68.39;100163.16;4985522;28;119906;-81
2021/12/30 03:41:40;;;;;;;64.55;10.25;;;;;;;12.06;68.39;100169.50;4958882;28;121829;-80
2021/12/30 03:44:06;;;;;;;60.67;10.70;;;;;;;12.04;68.04;100160.97;4972287;28;119758;-81
2021/12/30 03:46:32;;;;;;;62.28;10.00;;;;;;;12.05;68.53;100159.75;4956153;28;121799;-81
2021/12/30 03:48:58;;;;;;;52.55;9.50;;;;;;;11.97;68.07;100147.63;4951621;28;123623;-80
2021/12/30 03:51:25;;;;;;;59.67;10.80;;;;;;;12.07;68.31;100178.56;4970800;28;119886;-79
2021/12/30 03:53:57;;;;;;;66.45;10.68;;;;;;;12.01;68.43;100172.16;4985648;28;120122;-79
2021/12/30 03:56:28;;;;;;;65.82;10.55;;;;;;;12.15;68.19;100185.19;4953806;28;122878;-81
2021/12/30 03:58:53;;;;;;;61.67;10.07;;;;;;;12.12;69.01;100184.13;4953613;28;119980;-80
2021/12/30 04:01:22;;;;;;;67.38;10.18;;;;;;;12.20;68.42;100188.03;4972231;28;121014;-79
2021/12/30 04:03:49;;;;;;;61.85;9.98;;;;;;;12.24;68.71;100191.34;4978349;28;123051;-81
2021/12/30 04:06:18;;;;;;;57.58;10.70;;;;;;;12.22;68.09;100177.31;4964861;28;121090;-79
2021/12/30 04:08:45;;;;;;;58.67;10.65;;;;;;;12.29;68.35;100185.19;4971134;28;123496;-80
2021/12/30 04:11:10;;;;;;;75.07;11.05;;;;;;;12.29;68.09;100179.69;4971122;28;120055;-80
2021/12/30 04:13:37;;;;;;;64.65;11.13;;;;;;;12.19;67.54;100159.00;4953604;28;119963;-79
2021/12/30 04:16:03;;;;;;;47.58;9.43;;;;;;;12.23;68.39;100173.31;4952737;28;122697;-80
2021/12/30 04:18:29;;;;;;;61.55;10.70;;;;;;;12.21;68.16;100170.28;4954222;28;119829;-80
2021/12/30 04:20:55;;;;;;;61.53;10.95;;;;;;;12.27;68.49;100186.88;4963300;28;120920;-81
2021/12/30 04:23:20;;;;;;;61.35;10.82;;;;;;;12.27;67.85;100182.16;4957684;28;122579;-81
2021/12/30 04:25:46;;;;;;;59.30;10.70;;;;;;;12.22;67.96;100173.81;4953420;28;120205;-80
2021/12/30 04:28:12;;;;;;;56.08;10.15;;;;;;;12.16;67.29;100176.47;4966757;28;122581;-81
2021/12/30 04:30:42;;;;;;;64.72;10.68;;;;;;;12.26;68.30;100190.88;4985239;28;119636;-82
2021/12/30 04:33:11;;;;;;;65.10;10.73;;;;;;;12.23;67.58;100187.06;4965339;28;123471;-82
2021/12/30 04:35:39;;;;;;;62.35;10.27;;;;;;;12.19;67.34;100181.00;4967184;28;121942;-80
2021/12/30 04:38:08;;;;;;;58.60;10.52;;;;;;;12.19;68.12;100181.00;4970006;28;120031;-80
2021/12/30 04:40:33;;;;;;;63.22;11.30;;;;;;;12.22;69.42;100191.06;4949531;28;120574;-80
2021/12/30 04:42:59;;;;;;;73.00;10.93;;;;;;;12.23;68.46;100186.31;4968006;28;122867;-80
2021/12/30 04:45:26;;;;;;;60.53;10.05;;;;;;;12.26;68.99;100208.13;4974989;28;119884;-81
2021/12/30 04:47:52;;;;;;;64.15;10.57;;;;;;;12.25;68.28;100208.59;4955162;28;122632;-81
2021/12/30 04:50:18;;;;;;;60.33;10.88;;;;;;;12.13;67.25;100198.66;4987154;28;119798;-80
2021/12/30 04:52:43;;;;;;;65.50;10.63;;;;;;;12.13;67.95;100210.41;4968898;28;119918;-81
2021/12/30 04:55:10;;;;;;;64.28;10.13;;;;;;;12.16;68.71;100225.94;4967646;28;121279;-80
2021/12/30 04:57:36;;;;;;;54.80;9.43;;;;;;;12.06;68.16;100216.25;4982209;28;119482;-79
2021/12/30 05:00:06;;;;;;;56.97;9.93;;;;;;;12.03;68.10;100214.44;4967937;28;120720;-78
2021/12/30 05:02:45;;;;;;;59.60;9.18;;;;;;;12.07;67.14;100222.53;4983612;28;120215;-78
2021/12/30 05:05:13;;;;;;;67.00;10.80;;;;;;;12.05;67.45;100233.97;4966335;28;119972;-80
2021/12/30 05:07:39;;;;;;;56.03;9.63;;;;;;;11.99;68.81;100225.63;4954613;28;121830;-79
2021/12/30 05:10:05;;;;;;;57.85;10.55;;;;;;;11.97;67.53;100227.34;4968649;28;120368;-80
2021/12/30 05:12:30;;;;;;;62.38;10.60;;;;;;;12.00;67.66;100234.63;4949331;28;121954;-80
2021/12/30 05:14:56;;;;;;;66.80;10.73;;;;;;;11.92;67.40;100230.72;4968756;28;120623;-79
2021/12/30 05:17:22;;;;;;;68.22;10.77;;;;;;;11.90;67.02;100224.94;4971117;28;119446;-80
2021/12/30 05:19:48;;;;;;;63.28;10.80;;;;;;;11.88;66.83;100227.41;4964933;28;122020;-80
2021/12/30 05:22:14;;;;;;;62.38;10.50;;;;;;;11.85;67.60;100226.38;4948840;28;122873;-79
2021/12/30 05:24:40;;;;;;;68.32;10.88;;;;;;;11.81;67.81;100216.75;4987935;28;120197;-80
2021/12/30 05:27:05;;;;;;;58.42;11.02;;;;;;;11.75;67.13;100213.88;4952527;28;123245;-81
2021/12/30 05:29:31;;;;;;;60.53;10.00;;;;;;;11.85;67.07;100231.88;4985599;28;119952;-80
2021/12/30 05:31:57;;;;;;;65.43;10.68;;;;;;;11.77;66.97;100227.16;4969843;28;121961;-78
2021/12/30 05:34:23;;;;;;;69.85;11.82;;;;;;;11.79;66.85;100228.22;4984067;28;120044;-80
2021/12/30 05:36:48;;;;;;;72.88;10.88;;;;;;;11.74;66.63;100223.34;4967119;28;120417;-80
2021/12/30 05:39:14;;;;;;;73.47;11.50;;;;;;;11.75;66.80;100218.63;4955359;28;120278;-80
2021/12/30 05:41:40;;;;;;;71.32;12.38;;;;;;;11.73;67.33;100232.81;4968213;28;123403;-81
2021/12/30 05:44:09;;;;;;;71.10;11.32;;;;;;;11.76;67.66;100242.88;4951895;28;121107;-80
2021/12/30 05:46:37;;;;;;;79.18;12.23;;;;;;;11.70;67.34;100225.53;4954294;28;122140;-78
2021/12/30 05:49:03;;;;;;;77.05;11.55;;;;;;;11.66;67.49;100217.47;4968100;28;122945;-81
2021/12/30 05:51:29;;;;;;;80.45;11.82;;;;;;;11.59;67.67;100209.59;4968787;28;119806;-81
2021/12/30 05:53:55;;;;;;;65.80;11.18;;;;;;;11.64;68.50;100219.91;4970021;28;120649;-80
2021/12/30 05:56:20;;;;;;;74.82;12.05;;;;;;;11.66;67.80;100233.19;4934994;28;119759;-80
2021/12/30 05:58:46;;;;;;;72.20;12.05;;;;;;;11.64;67.55;100230.91;4948035;28;121773;-81
2021/12/30 06:01:11;;;;;;;67.57;11.50;;;;;;;11.63;67.26;100234.88;4961836;28;119768;-80
2021/12/30 06:03:37;;;;;;;66.63;11.40;;;;;;;11.51;67.01;100219.38;4969447;28;123143;-80
2021/12/30 06:06:06;;;;;;;79.35;12.68;;;;;;;11.49;66.32;100216.34;4985946;28;119766;-80
2021/12/30 06:08:31;;;;;;;74.78;12.35;;;;;;;11.48;66.27;100223.06;4986755;28;119900;-80
2021/12/30 06:11:00;;;;;;;76.28;11.07;;;;;;;11.40;66.03;100216.41;4967813;28;120344;-80
2021/12/30 06:13:25;;;;;;;69.22;11.65;;;;;;;11.38;66.29;100207.88;4986950;28;120108;-81
2021/12/30 06:15:54;;;;;;;68.75;11.13;;;;;;;11.33;66.12;100217.50;4986855;28;119584;-79
2021/12/30 06:18:19;;;;;;;65.88;10.82;;;;;;;11.26;66.40;100212.38;4966467;28;119672;-80
2021/12/30 06:20:45;;;;;;;64.60;10.73;;;;;;;11.20;66.25;100207.97;4984057;28;119859;-81
2021/12/30 06:23:11;;;;;;;77.35;11.75;;;;;;;11.18;66.55;100215.94;4952715;28;119838;-81
2021/12/30 06:25:37;;;;;;;73.28;12.20;;;;;;;11.14;66.14;100216.09;4970189;28;121069;-77
2021/12/30 06:28:02;;;;;;;70.13;12.40;;;;;;;11.13;66.15;100225.56;4966341;28;122157;-82
2021/12/30 06:30:28;;;;;;;65.78;12.20;;;;;;;11.04;66.52;100207.13;4965711;28;120097;-80
2021/12/30 06:32:54;;;;;;;83.03;12.65;;;;;;;11.04;66.56;100212.63;4956477;28;119616;-80
2021/12/30 06:35:20;;;;;;;80.43;13.48;;;;;;;11.11;67.02;100227.22;4983498;28;119707;-80
2021/12/30 06:37:46;;;;;;;81.15;13.27;;;;;;;11.12;67.12;100224.03;4975912;28;119764;-79
2021/12/30 06:40:13;;;;;;;71.30;13.93;;;;;;;11.07;67.38;100211.69;4950025;28;122095;-79
2021/12/30 06:42:41;;;;;;;72.63;14.57;;;;;;;11.11;67.69;100213.50;4967093;28;119874;-80
2021/12/30 06:45:07;;;;;;;73.10;14.05;;;;;;;11.20;67.89;100235.44;4968246;28;120047;-81
2021/12/30 06:47:33;;;;;;;68.93;13.77;;;;;;;11.18;67.65;100222.19;4965607;28;121367;-80
2021/12/30 06:50:02;;;;;;;62.33;13.95;;;;;;;11.25;68.23;100232.81;4984724;28;120339;-81
2021/12/30 06:52:30;;;;;;;61.83;13.25;;;;;;;11.26;68.34;100228.06;4981585;28;119592;-79
2021/12/30 06:54:55;;;;;;;62.75;13.93;;;;;;;11.36;67.99;100244.06;4986701;28;120215;-80
2021/12/30 06:57:21;;;;;;;87.40;16.30;;;;;;;11.34;68.22;100237.47;4938086;28;120326;-80
2021/12/30 06:59:47;;;;;;;67.25;15.35;;;;;;;11.44;68.05;100243.69;4950276;28;122499;-79
2021/12/30 07:02:14;;;;;;;62.13;14.20;;;;;;;11.42;67.76;100241.41;4987415;28;119472;-81
2021/12/30 07:04:40;;;;;;;64.13;13.93;;;;;;;11.45;67.53;100256.19;4969058;28;122684;-81
2021/12/30 07:07:06;;;;;;;64.45;15.25;;;;;;;11.42;68.35;100255.16;4984420;28;119791;-79
2021/12/30 07:09:31;;;;;;;79.85;15.40;;;;;;;11.40;68.16;100254.84;4990014;28;119984;-81
2021/12/30 07:11:58;;;;;;;70.05;15.20;;;;;;;11.47;67.76;100270.22;4988619;28;122912;-79
2021/12/30 07:14:25;;;;;;;79.85;15.48;;;;;;;11.48;67.81;100261.53;4970234;28;121528;-79
2021/12/30 07:16:53;;;;;;;84.60;15.82;;;;;;;11.45;67.31;100254.22;4977976;28;119735;-79
2021/12/30 07:19:19;;;;;;;92.65;16.85;;;;;;;11.46;68.17;100249.47;4969758;28;122452;-79
2021/12/30 07:21:45;;;;;;;84.00;15.90;;;;;;;11.43;67.91;100234.69;4970798;28;119861;-79
2021/12/30 07:24:13;;;;;;;81.57;15.98;;;;;;;11.49;67.52;100248.53;4954409;28;122696;-79
2021/12/30 07:26:39;;;;;;;81.13;15.98;;;;;;;11.48;67.79;100241.53;4969558;28;119923;-79
2021/12/30 07:29:05;;;;;;;101.38;17.15;;;;;;;11.47;67.80;100251.75;4955160;28;119557;-80
2021/12/30 07:31:31;;;;;;;87.95;17.98;;;;;;;11.39;67.94;100242.34;4972382;28;121348;-81
2021/12/30 07:33:56;;;;;;;102.47;17.63;;;;;;;11.36;67.54;100237.81;4984539;28;119659;-80
2021/12/30 07:36:22;;;;;;;90.50;18.15;;;;;;;11.41;68.06;100242.66;4968778;28;120650;-77
2021/12/30 07:38:50;;;;;;;93.75;18.25;;;;;;;11.44;67.95;100255.44;4975150;28;119923;-79
2021/12/30 07:41:17;;;;;;;83.47;16.42;;;;;;;11.42;67.85;100263.38;4948516;28;119789;-81
2021/12/30 07:43:43;;;;;;;90.53;17.35;;;;;;;11.31;67.50;100252.16;4954800;28;121290;-78
2021/12/30 07:46:10;;;;;;;78.18;16.20;;;;;;;11.38;67.59;100257.31;4970366;28;123037;-80
2021/12/30 07:48:37;;;;;;;97.63;17.58;;;;;;;11.46;67.77;100274.19;4968269;28;121473;-81
2021/12/30 07:51:06;;;;;;;88.15;18.00;;;;;;;11.35;67.70;100258.22;4969366;28;120574;-80
2021/12/30 07:53:32;;;;;;;95.22;17.65;;;;;;;11.43;67.89;100264.16;4970190;28;119875;-81
2021/12/30 07:55:58;;;;;;;84.68;18.30;;;;;;;11.46;67.98;100269.47;4970261;28;119715;-81
2021/12/30 07:58:23;;;;;;;85.55;16.40;;;;;;;11.48;67.47;100275.25;4982589;28;121921;-80
2021/12/30 08:00:49;;;;;;;84.60;16.63;;;;;;;11.47;67.93;100270.97;4956896;28;120356;-79
2021/12/30 08:03:15;;;;;;;84.78;16.95;;;;;;;11.48;67.85;100278.00;4985692;28;122013;-81
2021/12/30 08:05:40;;;;;;;82.88;16.67;;;;;;;11.60;68.63;100295.50;4956262;28;120084;-81
2021/12/30 08:08:06;;;;;;;75.13;15.07;;;;;;;11.62;68.56;100291.06;4971384;28;119383;-80
2021/12/30 08:10:34;;;;;;;84.47;16.52;;;;;;;11.52;68.63;100273.09;4972879;28;121950;-80
2021/12/30 08:13:01;;;;;;;78.95;15.77;;;;;;;11.64;68.46;100291.34;4968122;28;120017;-80
2021/12/30 08:15:26;;;;;;;84.47;16.88;;;;;;;11.53;69.15;100277.34;4968566;28;119775;-80
2021/12/30 08:17:52;;;;;;;83.30;16.40;;;;;;;11.66;68.69;100285.38;4967255;28;122052;-80
2021/12/30 08:20:39;;;;;;;70.43;14.70;;;;;;;11.71;68.35;100295.72;4969220;28;120347;-80
2021/12/30 08:23:04;;;;;;;78.80;15.45;;;;;;;11.66;68.30;100288.88;4912021;28;120032;-78
2021/12/30 08:25:33;;;;;;;88.75;16.05;;;;;;;11.68;68.50;100302.91;4909271;28;123299;-81
2021/12/30 08:27:59;;;;;;;85.55;15.48;;;;;;;11.72;68.38;100315.72;4892072;28;119859;-80
2021/12/30 08:30:25;;;;;;;68.13;13.98;;;;;;;11.76;68.34;100325.31;4891452;28;122486;-78
2021/12/30 08:32:51;;;;;;;73.53;14.68;;;;;;;11.86;68.85;100331.56;4870688;28;122542;-81
2021/12/30 08:35:17;;;;;;;70.57;14.23;;;;;;;11.92;68.46;100335.16;4889175;28;119891;-80
2021/12/30 08:37:44;;;;;;;67.40;14.45;;;;;;;11.94;68.00;100327.97;4856710;28;122164;-79
2021/12/30 08:40:12;;;;;;;78.75;14.18;;;;;;;11.94;68.06;100324.47;4876593;28;123273;-79
2021/12/30 08:42:38;;;;;;;75.00;14.93;;;;;;;11.87;67.93;100306.34;4910125;28;121422;-81
2021/12/30 08:45:05;;;;;;;73.47;13.98;;;;;;;11.91;68.13;100308.91;4901255;28;120452;-80
2021/12/30 08:47:32;;;;;;;76.43;14.88;;;;;;;11.94;69.70;100308.75;4892460;28;121754;-78
2021/12/30 08:49:58;;;;;;;72.20;14.35;;;;;;;11.97;68.76;100283.06;4891291;28;122052;-78
2021/12/30 08:52:25;;;;;;;70.50;15.40;;;;;;;11.98;68.19;100270.84;4875282;28;122961;-78
2021/12/30 08:54:53;;;;;;;76.55;14.90;;;;;;;11.99;67.90;100282.59;4891599;28;119836;-77
2021/12/30 08:57:20;;;;;;;79.60;15.63;;;;;;;12.01;68.63;100284.88;4905391;28;123197;-79
2021/12/30 08:59:49;;;;;;;68.25;14.70;;;;;;;11.98;68.20;100278.31;4900609;28;123613;-80
2021/12/30 09:02:15;;;;;;;76.57;14.57;;;;;;;12.04;68.53;100286.69;4952222;28;119827;-81
2021/12/30 09:04:45;;;;;;;72.13;13.88;;;;;;;12.10;68.00;100296.56;4954730;28;122637;-79
2021/12/30 09:07:12;;;;;;;75.95;14.57;;;;;;;12.12;67.99;100299.59;4981063;28;119958;-80
2021/12/30 09:09:38;;;;;;;79.10;14.55;;;;;;;12.15;67.82;100300.66;4949465;28;121418;-79
2021/12/30 09:12:04;;;;;;;67.25;13.70;;;;;;;12.09;68.06;100280.53;4974238;28;120978;-79
2021/12/30 09:14:30;;;;;;;74.68;14.98;;;;;;;12.09;68.39;100286.03;4948240;28;120178;-79
2021/12/30 09:16:56;;;;;;;73.35;14.75;;;;;;;12.14;68.29;100286.16;4949746;28;121833;-80
2021/12/30 09:19:21;;;;;;;76.10;14.70;;;;;;;12.14;68.05;100288.13;4977905;28;119775;-80
2021/12/30 09:21:47;;;;;;;71.80;15.40;;;;;;;12.21;67.70;100287.78;4944495;28;120430;-78
2021/12/30 09:24:13;;;;;;;59.08;14.82;;;;;;;12.16;68.06;100280.94;4964571;28;121735;-79
2021/12/30 09:26:39;;;;;;;51.88;13.82;;;;;;;12.28;67.67;100293.66;4968570;28;122909;-80
2021/12/30 09:29:10;;;;;;;49.63;13.73;;;;;;;12.26;67.92;100279.63;4946953;28;121896;-78
2021/12/30 09:31:42;;;;;;;55.05;15.40;;;;;;;12.27;68.33;100281.13;4949300;28;124224;-80
2021/12/30 09:34:07;;;;;;;55.33;15.02;;;;;;;12.37;68.25;100289.31;4961108;28;120153;-76
2021/12/30 09:36:34;;;;;;;47.53;13.65;;;;;;;12.42;68.01;100288.66;4964978;28;122921;-78
2021/12/30 09:38:59;;;;;;;45.05;13.45;;;;;;;12.36;68.23;100283.06;4975715;28;120930;-76
2021/12/30 09:41:26;;;;;;;49.50;13.27;;;;;;;12.47;68.48;100282.50;4948765;28;119998;-80
2021/12/30 09:43:51;;;;;;;46.63;13.15;;;;;;;12.55;68.12;100273.41;4964178;28;122252;-80
2021/12/30 09:46:18;;;;;;;40.88;12.27;;;;;;;12.61;68.46;100290.03;4952681;28;120309;-80
2021/12/30 09:48:44;;;;;;;38.40;11.48;;;;;;;12.61;68.39;100284.50;4964718;28;120153;-80
2021/12/30 09:51:10;;;;;;;38.25;12.60;;;;;;;12.66;69.52;100285.84;4981419;28;121063;-80
2021/12/30 09:53:36;;;;;;;37.38;11.13;;;;;;;12.75;69.06;100303.00;4982338;28;121800;-79
2021/12/30 09:56:02;;;;;;;35.45;10.52;;;;;;;12.71;68.76;100268.66;4946399;28;122468;-79
2021/12/30 09:58:29;;;;;;;33.33;11.10;;;;;;;12.72;68.82;100265.44;4982969;28;122320;-80
2021/12/30 10:00:56;;;;;;;42.80;12.23;;;;;;;12.72;69.54;100268.19;4946597;28;120466;-79
2021/12/30 10:03:22;;;;;;;37.35;11.63;;;;;;;12.87;68.72;100277.22;4990619;28;122343;-78
2021/12/30 10:05:48;;;;;;;39.45;11.77;;;;;;;12.90;68.40;100281.75;4984174;28;122783;-80
2021/12/30 10:08:25;;;;;;;40.03;13.43;;;;;;;12.96;68.72;100278.31;4977965;28;121631;-77
2021/12/30 10:11:03;;;;;;;36.75;12.90;;;;;;;12.97;68.37;100264.09;4980628;28;121798;-75
2021/12/30 10:13:32;;;;;;;38.45;12.90;;;;;;;13.03;68.87;100266.94;4998527;28;119981;-79
2021/12/30 10:16:10;;;;;;;36.60;12.73;;;;;;;13.04;68.60;100266.47;4978644;28;119600;-80
2021/12/30 10:18:47;;;;;;;43.75;13.55;;;;;;;13.07;68.63;100256.50;4990149;28;122746;-80
2021/12/30 10:21:36;;;;;;;39.72;13.15;;;;;;;13.08;68.67;100253.25;4979574;28;120041;-79
2021/12/30 10:24:05;;;;;;;32.83;13.30;;;;;;;13.05;68.65;100242.44;4969648;28;122006;-80
2021/12/30 10:26:49;;;;;;;49.47;14.30;;;;;;;13.04;68.79;100244.44;4975774;28;122505;-79
2021/12/30 10:29:17;;;;;;;39.60;12.38;;;;;;;13.07;68.57;100239.97;4986896;28;121365;-80
2021/12/30 10:31:43;;;;;;;42.22;12.90;;;;;;;13.12;69.77;100236.53;4984031;28;120294;-78
2021/12/30 10:34:11;;;;;;;29.98;11.60;;;;;;;13.14;69.02;100217.53;4953716;28;120347;-80
2021/12/30 10:36:38;;;;;;;33.40;12.98;;;;;;;13.22;69.52;100226.94;4972415;28;120936;-80
2021/12/30 11:14:00;;;;;;;17.55;12.10;;;;;;;13.05;69.83;100248.72;5015101;22;120016;-90
2021/12/30 11:16:26;;;;;;;17.88;11.85;;;;;;;13.11;69.89;100246.03;5000432;27;120236;-92
2021/12/30 11:18:56;;;;;;;14.68;11.50;;;;;;;13.16;69.41;100253.63;5004159;27;121387;-89
2021/12/30 11:21:41;;;;;;;17.95;11.50;;;;;;;13.20;69.75;100254.19;4999166;27;123090;-91
2021/12/30 11:24:08;;;;;;;16.80;11.23;;;;;;;13.21;69.41;100244.69;4990697;27;119824;-91
2021/12/30 11:26:35;;;;;;;19.52;12.32;;;;;;;13.19;69.40;100227.91;4990350;27;121917;-91
2021/12/30 11:29:04;;;;;;;20.00;12.25;;;;;;;12.88;69.33;100179.63;4987076;27;121877;-92
2021/12/30 11:31:32;;;;;;;16.50;12.07;;;;;;;13.12;69.36;100212.50;5005686;27;119793;-92
2021/12/30 11:34:03;;;;;;;17.13;11.48;;;;;;;12.90;69.07;100165.38;5002890;27;120322;-92
2021/12/30 11:36:29;;;;;;;21.95;12.40;;;;;;;13.05;69.05;100193.66;5001090;27;119399;-92
2021/12/30 11:38:57;;;;;;;14.70;10.50;;;;;;;13.01;68.82;100184.06;5016652;27;122536;-91